Port Jefferson Station, New York
Current Conditions -  °F | °C
As of 10:56 AM on Saturday 25 Oct 2014 (Local Time) from KISP Reporting Station
Clear Clear  
Wind Chill: 14°   Ceiling: Unl
Heat Index: 14°   Visibility: 10mi
Dew Point:   Wind: 5mph
Humidity: 53%   Direction: 310°NW
Pressure: 29.81"   Gusts: NA
Location:  40.93°N, 73.05°W
Report Text: KISP 251456Z 31004KT 10SM CLR 14/05 A2981 RMK AO2 SLP092 T01440050 58009
Loading
Personal Weather Stations






























Interactive Weather Map
Tropical Storm Tracking
New forecast layout! Learn more

10-Day Weather Forecast

Advertisements
Track Severe Weather on mobile